Portada
METAR-TAF:

METAR-TAF

Aeroports :

Lampang, Tailàndia

latitud: 18-17N, longitud: 099-31E, altitud: 241 m

Observació

L'informe es va fer fa 59 minuts, a les 00:00 UTC
Vent 1 kt amb direcció variable
Temperatura 20°C
Humitat 73%
Pressió 1009 hPa
Visibilitat: 4000 m
boirina

METAR: VTCL 300000Z VRB01KT 4000 BR NSC 20/15 Q1009 BECMG 3000 HZ

Hora: 07:59 (00:59 UTC)

Pronòstic

L'informe es va fer fa 1 hora i 59 minuts, a les 23:00 UTC
Pronòstic vàlid del 30 a les 00 UTC al 30 a les 24 UTC
Vent 5 kt del Sud
Visibilitat: 5000 m
calitja

TAF: VTCL 292300Z 3000/3024 19005KT 5000 HZ NSC

Observacions i pronòstics meteorològics de més de 4000 aeroports (METAR i TAF).

Les estacions disponibles són els punts grocs i vermells al mapa.

Posi el ratolí al punt desitjat per veure el nom de l'estació.

Feu clic per veure les observacions i els pronòstics meteorològics.

Per canviar el mapa: feu clic els botons verds amb una creu de color negre per apropar; al botó verd amb un guió per allunyar la imatge; o en les fletxes verdes per a mapes adjacents.


METAR-TAF: